• Join FlightAware (Why Join?)
  • Login
  • US Flag 
06:16PM EST


 

Airport Tracker/Info


-or-


 

Live Flight TrackerFlight Track Log ✈ SWA3228 ✈ 07-May-2013 ✈ KMCO - KBHM

Flight Track Log - Related Links

Times and Time Zones

All times are in EDT time to prevent confusion due to time zone crossing. See the SWA3228 flight status page for this flight to view local times or setup timezone preferences in your user account.

Time Position Orientation Groundspeed Altitude Reporting Facility
EDT Latitude Longitude Course Direction KTS MPH feet Rate Location/Type
08:12AM 28.4167 -81.3000 204° Southwest 138 159 900  Level Orlando TRACON
08:12AM 28.3833 -81.3167 204° Southwest 207 238 2,800 2,882 Climbing Orlando TRACON
08:13AM 28.3667 -81.3667 249° West 217 250 5,800 3,900 Climbing Orlando TRACON
08:14AM 28.3500 -81.4500 257° West 251 289 10,600 3,568 Climbing Orlando TRACON
08:16AM 28.3525 -81.6331 271° West 309 356 16,800 3,352 Climbing Jacksonville Center
08:17AM 28.3681 -81.7367 280° West 320 368 20,600 3,400 Climbing Jacksonville Center
08:18AM 28.3919 -81.8425 284° West 335 386 23,600 2,850 Climbing Jacksonville Center
08:19AM 28.4136 -81.9581 282° West 360 414 26,300 2,650 Climbing Jacksonville Center
08:20AM 28.4789 -82.0519 308° West 376 433 28,900 2,400 Climbing Jacksonville Center
08:21AM 28.5692 -82.1292 323° Northwest 381 438 31,100 2,350 Climbing Jacksonville Center
08:22AM 28.6572 -82.2089 322° Northwest 394 453 33,600 2,100 Climbing Jacksonville Center
08:23AM 28.7494 -82.2886 323° Northwest 406 467 35,300 1,700 Climbing Jacksonville Center
08:24AM 28.8397 -82.3689 322° Northwest 411 473 37,000 1,700 Climbing Jacksonville Center
08:25AM 28.9297 -82.4514 321° Northwest 411 473 38,700 1,500 Climbing Jacksonville Center
08:26AM 29.0175 -82.5317 321° Northwest 411 473 40,000 650 Climbing Jacksonville Center
08:27AM 29.1097 -82.6122 323° Northwest 411 473 40,000  Level Jacksonville Center
08:28AM 29.1975 -82.6928 321° Northwest 411 473 40,000  Level Jacksonville Center
08:29AM 29.2853 -82.7736 321° Northwest 411 473 40,000  Level Jacksonville Center
08:30AM 29.3731 -82.8544 321° Northwest 406 467 40,000  Level Jacksonville Center
08:31AM 29.4606 -82.9331 322° Northwest 401 461 40,000  Level Jacksonville Center
08:32AM 29.5525 -83.0167 322° Northwest 404 465 40,000  Level Jacksonville Center
08:33AM 29.6381 -83.0981 320° Northwest 404 465 40,000  Level Jacksonville Center
08:34AM 29.7275 -83.1772 322° Northwest 404 465 40,000  Level Jacksonville Center
08:35AM 29.8150 -83.2611 320° Northwest 404 465 40,000 -450 Level Jacksonville Center
08:36AM 29.9108 -83.3478 322° Northwest 404 465 39,100 -900 Descending Jacksonville Center
08:37AM 30.0003 -83.4297 322° Northwest 404 465 38,200 -550 Descending Jacksonville Center
08:38AM 30.0875 -83.5119 321° Northwest 404 465 38,000 -100 Descending Jacksonville Center
08:39AM 30.1747 -83.5894 322° Northwest 399 459 38,000  Level Jacksonville Center
08:40AM 30.2619 -83.6717 321° Northwest 399 459 38,000  Level Jacksonville Center
08:41AM 30.3472 -83.7542 320° Northwest 399 459 38,000  Level Jacksonville Center
08:42AM 30.4342 -83.8322 322° Northwest 399 459 38,000  Level Jacksonville Center
08:43AM 30.5214 -83.9150 321° Northwest 399 459 38,000  Level Jacksonville Center
08:44AM 30.6022 -83.9931 320° Northwest 399 459 38,000  Level Jacksonville Center
08:45AM 30.6911 -84.0786 320° Northwest 399 459 38,000  Level Jacksonville Center
08:46AM 30.7614 -84.1425 322° Northwest 399 459 38,000  Level Jacksonville Center
08:47AM 30.8544 -84.2308 321° Northwest 399 459 38,000  Level Jacksonville Center
08:48AM 30.9433 -84.3144 321° Northwest 404 465 38,000  Level Jacksonville Center
08:49AM 31.0303 -84.3981 321° Northwest 399 459 38,000  Level Jacksonville Center
08:50AM 31.1169 -84.4797 321° Northwest 399 459 38,000 -200 Level Jacksonville Center
08:51AM 31.2056 -84.5661 320° Northwest 399 459 37,600 -1,033 Descending Jacksonville Center
08:53AM 31.3422 -84.6953 321° Northwest 402 463 35,400 -1,391 Descending Atlanta Center
08:54AM 31.4231 -84.7761 320° Northwest 402 463 34,100 -1,300 Descending Atlanta Center
08:55AM 31.5061 -84.8547 321° Northwest 395 455 32,800 -1,250 Descending Atlanta Center
08:56AM 31.5889 -84.9336 321° Northwest 390 449 31,600 -1,250 Descending Atlanta Center
08:57AM 31.6719 -85.0150 320° Northwest 390 449 30,300 -1,250 Descending Atlanta Center
08:58AM 31.7525 -85.0939 320° Northwest 384 442 29,100 -1,150 Descending Atlanta Center
08:59AM 31.8250 -85.1583 323° Northwest 379 436 28,000 -1,150 Descending Atlanta Center
09:00AM 31.9014 -85.2375 319° Northwest 374 430 26,800 -1,200 Descending Atlanta Center
09:01AM 31.9800 -85.3119 321° Northwest 374 430 25,600 -1,200 Descending Atlanta Center
09:02AM 32.0544 -85.3842 321° Northwest 368 423 24,400 -800 Descending Atlanta Center
09:03AM 32.1267 -85.4564 320° Northwest 356 410 24,000 -600 Descending Atlanta Center
09:04AM 32.2011 -85.5289 321° Northwest 351 404 23,200 -1,000 Descending Atlanta Center
09:05AM 32.2814 -85.6086 320° Northwest 351 404 22,000 -1,100 Descending Atlanta Center
09:06AM 32.3514 -85.6789 320° Northwest 345 397 21,000 -1,000 Descending Atlanta Center
09:07AM 32.4214 -85.7464 321° Northwest 339 390 20,000 -1,000 Descending Atlanta Center
09:08AM 32.4872 -85.8192 317° Northwest 328 377 19,000 -1,000 Descending Atlanta Center
09:09AM 32.5594 -85.8797 325° Northwest 328 377 18,000 -950 Descending Atlanta Center
09:10AM 32.6272 -85.9503 319° Northwest 323 372 17,100 -900 Descending Atlanta Center
09:11AM 32.6950 -86.0183 320° Northwest 323 372 16,200 -1,050 Descending Atlanta Center
09:12AM 32.7608 -86.0842 320° Northwest 318 366 15,000 -1,154 Descending Atlanta Center
09:13AM 32.8100 -86.1397 316° Northwest 311 358 14,200 -1,054 Descending Atlanta Center
09:13AM 32.8386 -86.1700 318° Northwest 308 354 13,700 -1,026 Descending Atlanta Center
09:14AM 32.8922 -86.2158 324° Northwest 313 360 12,900 -1,082 Descending Atlanta Center
09:14AM 32.9022 -86.2358 301° West 303 349 12,600 -1,000 Descending Atlanta Center
09:15AM 32.9556 -86.2817 324° Northwest 307 353 11,900 -885 Descending Atlanta Center
09:15AM 32.9678 -86.2969 314° West 302 348 11,700 -900 Descending Atlanta Center
09:16AM 33.0192 -86.3453 322° Northwest 307 353 11,000 -700 Descending Atlanta Center
09:16AM 33.0356 -86.3681 311° West 301 346 11,000  Level Atlanta Center
09:17AM 33.0806 -86.4064 324° Northwest 302 348 11,000 -393 Level Atlanta Center
09:17AM 33.0906 -86.4289 298° West 265 305 10,600 -1,700 Descending Atlanta Center
09:18AM 33.1211 -86.4744 309° West 279 321 9,300 -1,672 Descending Atlanta Center
09:18AM 33.1331 -86.4997 299° West 262 302 8,900 -1,500 Descending Atlanta Center
09:19AM 33.1656 -86.5428 312° West 268 308 7,800 -1,583 Descending Atlanta Center
09:19AM 33.1856 -86.5831 301° West 255 293 7,000 -1,600 Descending Atlanta Center
09:20AM 33.2039 -86.6133 306° West 258 297 6,200 -1,672 Descending Atlanta Center
09:20AM 33.2239 -86.6536 301° West 251 289 5,300 -1,200 Descending Atlanta Center
09:21AM 33.2461 -86.6817 313° West 258 297 5,000 -984 Descending Atlanta Center
09:21AM 33.2642 -86.7169 301° West 243 280 4,300 -1,000 Descending Atlanta Center
09:22AM 33.2825 -86.7447 308° West 248 285 4,000 -300 Descending Atlanta Center
09:22AM 33.3003 -86.7803 301° West 222 255 4,000  Level Atlanta Center
09:23AM 33.3347 -86.8336 308° West 197 227 4,000  Level Atlanta Center
09:24AM 33.3733 -86.8769 317° Northwest 203 234 4,000 -522 Level Atlanta Center
09:25AM 33.4119 -86.9256 314° West 206 237 3,000 -724 Descending Atlanta Center
09:26AM 33.4581 -86.9172 North 203 234 2,600 -209 Descending Atlanta Center
09:27AM 33.4967 -86.8736 43° Northeast 180 207 2,600 -397 Level Atlanta Center
09:28AM 33.5206 -86.8319 55° Northeast 147 169 1,800 -730 Descending Atlanta Center
09:29AM 33.5378 -86.8003 57° Northeast 123 142 1,200 -667 Descending Atlanta Center
09:31AM 33.5500 -86.7500 18° North  Level FlightAware Approximate
09:38AM 33.5639 -86.7523 18° North  Level Estimated